createdAt,value
2018-01-15T00:02:22.285Z,36.53
2018-01-15T00:04:49.907Z,47.40
2018-01-15T00:07:17.525Z,40.30
2018-01-15T00:09:45.147Z,47.97
2018-01-15T00:12:13.028Z,49.63
2018-01-15T00:14:40.656Z,42.10
2018-01-15T00:17:08.279Z,45.13
2018-01-15T00:19:35.875Z,45.07
2018-01-15T00:22:03.573Z,43.57
2018-01-15T00:24:31.444Z,43.47
2018-01-15T00:26:59.070Z,42.40
2018-01-15T00:29:26.680Z,40.63
2018-01-15T00:31:54.280Z,39.80
2018-01-15T00:34:21.927Z,43.43
2018-01-15T00:36:49.528Z,41.50
2018-01-15T00:39:17.132Z,45.27
2018-01-15T00:41:44.764Z,44.60
2018-01-15T00:44:12.355Z,40.80
2018-01-15T00:46:39.993Z,44.00
2018-01-15T00:49:07.610Z,44.07
2018-01-15T00:51:35.216Z,42.50
2018-01-15T00:54:02.832Z,41.10
2018-01-15T00:56:30.754Z,39.33
2018-01-15T00:58:58.624Z,45.07
2018-01-15T01:01:26.244Z,39.23
2018-01-15T01:03:54.094Z,48.47
2018-01-15T01:06:21.729Z,46.20
2018-01-15T01:08:49.320Z,45.07
2018-01-15T01:11:17.247Z,46.80
2018-01-15T01:13:44.838Z,44.30
2018-01-15T01:16:12.436Z,59.83
2018-01-15T01:18:40.061Z,45.77
2018-01-15T01:21:08.008Z,40.60
2018-01-15T01:23:35.645Z,42.10
2018-01-15T01:26:03.250Z,41.60
2018-01-15T01:28:30.838Z,51.60
2018-01-15T01:30:58.453Z,44.87
2018-01-15T01:33:26.056Z,46.30
2018-01-15T01:35:53.704Z,47.33
2018-01-15T01:38:21.352Z,46.90
2018-01-15T01:40:48.948Z,41.20
2018-01-15T01:43:16.874Z,44.70
2018-01-15T01:45:44.475Z,42.83
2018-01-15T01:48:12.147Z,41.80
2018-01-15T01:50:39.742Z,44.10
2018-01-15T01:53:07.365Z,50.13
2018-01-15T01:55:34.983Z,38.93
2018-01-15T01:58:02.851Z,41.90
2018-01-15T02:00:30.493Z,48.60
2018-01-15T02:02:58.093Z,46.37
2018-01-15T02:05:25.726Z,43.10
2018-01-15T02:07:53.603Z,44.40
2018-01-15T02:10:21.242Z,51.70
2018-01-15T02:12:49.238Z,49.23
2018-01-15T02:15:16.822Z,45.47
2018-01-15T02:17:44.435Z,41.50
2018-01-15T02:20:12.059Z,47.33
2018-01-15T02:22:39.987Z,43.00
2018-01-15T02:25:07.638Z,44.67
2018-01-15T02:27:35.231Z,48.87
2018-01-15T02:30:02.870Z,51.60
2018-01-15T02:32:30.488Z,45.30
2018-01-15T02:34:58.082Z,47.77
2018-01-15T02:37:25.723Z,49.23
2018-01-15T02:39:53.331Z,49.40
2018-01-15T02:42:20.948Z,49.57
2018-01-15T02:44:48.682Z,40.80
2018-01-15T02:47:16.273Z,45.00
2018-01-15T02:49:43.909Z,45.73
2018-01-15T02:52:11.511Z,51.40
2018-01-15T02:54:39.787Z,48.93
2018-01-15T02:57:07.401Z,45.80
2018-01-15T02:59:34.982Z,41.77
2018-01-15T03:02:02.612Z,46.83
2018-01-15T03:04:30.207Z,44.77
2018-01-15T03:06:58.136Z,48.13
2018-01-15T03:09:26.099Z,49.07
2018-01-15T03:11:53.968Z,44.50
2018-01-15T03:14:21.590Z,50.90
2018-01-15T03:16:49.173Z,45.97
2018-01-15T03:19:16.810Z,45.40
2018-01-15T03:21:44.428Z,48.63
2018-01-15T03:24:12.035Z,45.80
2018-01-15T03:26:39.726Z,49.73
2018-01-15T03:29:07.354Z,41.77
2018-01-15T03:31:34.951Z,48.40
2018-01-15T03:34:02.602Z,52.33
2018-01-15T03:36:30.195Z,49.73
2018-01-15T03:38:57.831Z,42.20
2018-01-15T03:41:25.460Z,49.90
2018-01-15T03:43:53.051Z,55.37
2018-01-15T03:46:20.728Z,50.13
2018-01-15T03:48:48.341Z,66.07
2018-01-15T03:51:15.998Z,50.80
2018-01-15T03:53:43.587Z,49.70
2018-01-15T03:56:11.172Z,47.67
2018-01-15T03:58:38.796Z,46.80
2018-01-15T04:01:06.388Z,50.17
2018-01-15T04:03:34.018Z,49.53
2018-01-15T04:06:01.610Z,48.27
2018-01-15T04:08:29.203Z,57.03
2018-01-15T04:10:57.063Z,47.67
2018-01-15T04:13:24.688Z,46.50
2018-01-15T04:15:52.363Z,47.30
2018-01-15T04:18:20.244Z,52.47
2018-01-15T04:20:47.836Z,39.23
2018-01-15T04:23:15.497Z,46.90
2018-01-15T04:25:43.360Z,48.60
2018-01-15T04:28:11.021Z,45.53
2018-01-15T04:30:38.643Z,51.10
2018-01-15T04:33:06.247Z,48.20
2018-01-15T04:35:33.873Z,48.80
2018-01-15T04:38:01.468Z,52.57
2018-01-15T04:40:29.112Z,51.23
2018-01-15T04:42:56.708Z,51.30
2018-01-15T04:45:24.305Z,45.63
2018-01-15T04:47:52.013Z,60.63
2018-01-15T04:50:19.679Z,48.13
2018-01-15T04:52:47.315Z,47.60
2018-01-15T04:55:14.912Z,53.23
2018-01-15T04:57:42.598Z,48.17
2018-01-15T05:00:10.214Z,49.43
2018-01-15T05:02:37.794Z,50.77
2018-01-15T05:05:05.438Z,44.60
2018-01-15T05:07:33.036Z,48.43
2018-01-15T05:10:00.636Z,46.13
2018-01-15T05:12:28.581Z,63.43
2018-01-15T05:14:56.179Z,53.73
2018-01-15T05:17:23.895Z,48.63
2018-01-15T05:19:51.486Z,52.03
2018-01-15T05:22:19.172Z,51.27
2018-01-15T05:24:46.807Z,53.00
2018-01-15T05:27:14.432Z,45.30
2018-01-15T05:29:42.037Z,45.73
2018-01-15T05:32:09.684Z,50.93
2018-01-15T05:34:37.302Z,51.23
2018-01-15T05:37:04.910Z,46.80
2018-01-15T05:39:32.546Z,43.67
2018-01-15T05:42:00.153Z,57.80
2018-01-15T05:44:28.694Z,55.10
2018-01-15T05:46:56.319Z,50.83
2018-01-15T05:49:24.204Z,45.27
2018-01-15T05:51:51.806Z,45.97
2018-01-15T05:54:20.041Z,47.20
2018-01-15T05:56:47.908Z,48.10
2018-01-15T05:59:15.513Z,50.70
2018-01-15T06:01:43.124Z,52.13
2018-01-15T06:04:10.962Z,53.37
2018-01-15T06:06:38.580Z,52.13
2018-01-15T06:09:06.427Z,59.60
2018-01-15T06:11:34.084Z,45.27
2018-01-15T06:14:01.679Z,47.13
2018-01-15T06:16:29.406Z,52.23
2018-01-15T06:18:57.809Z,53.40
2018-01-15T06:21:25.674Z,48.20
2018-01-15T06:23:53.319Z,56.03
2018-01-15T06:26:20.997Z,50.40
2018-01-15T06:28:48.615Z,48.30
2018-01-15T06:31:16.260Z,50.50
2018-01-15T06:33:43.882Z,49.00
2018-01-15T06:36:11.858Z,47.97
2018-01-15T06:38:39.451Z,45.17
2018-01-15T06:41:07.073Z,47.13
2018-01-15T06:43:34.712Z,51.53
2018-01-15T06:46:02.312Z,46.83
2018-01-15T06:48:30.057Z,48.43
2018-01-15T06:50:57.660Z,51.37
2018-01-15T06:53:25.291Z,66.67
2018-01-15T06:55:53.255Z,57.73
2018-01-15T06:58:20.880Z,50.47
2018-01-15T07:00:48.525Z,46.77
2018-01-15T07:03:16.453Z,46.43
2018-01-15T07:05:44.092Z,56.17
2018-01-15T07:08:11.703Z,50.30
2018-01-15T07:10:39.654Z,53.67
2018-01-15T07:13:07.635Z,48.97
2018-01-15T07:15:35.276Z,54.93
2018-01-15T07:18:02.917Z,49.70
2018-01-15T07:20:30.548Z,49.77
2018-01-15T07:22:58.178Z,46.17
2018-01-15T07:25:25.835Z,56.33
2018-01-15T07:27:53.447Z,48.97
2018-01-15T07:30:21.113Z,50.40
2018-01-15T07:32:48.744Z,52.60
2018-01-15T07:35:16.377Z,46.67
2018-01-15T07:37:44.034Z,53.40
2018-01-15T07:40:11.643Z,48.53
2018-01-15T07:42:39.271Z,54.20
2018-01-15T07:45:07.477Z,50.00
2018-01-15T07:47:35.156Z,60.73
2018-01-15T07:50:02.876Z,54.27
2018-01-15T07:52:30.500Z,49.50
2018-01-15T07:54:58.123Z,54.43
2018-01-15T07:57:25.805Z,59.57
2018-01-15T07:59:53.403Z,48.17
2018-01-15T08:02:21.952Z,57.43
2018-01-15T08:04:49.612Z,52.43
2018-01-15T08:07:17.499Z,57.13
2018-01-15T08:09:45.133Z,58.37
2018-01-15T08:12:12.731Z,60.63
2018-01-15T08:14:41.176Z,59.20
2018-01-15T08:17:11.043Z,56.17
2018-01-15T08:19:38.636Z,59.93
2018-01-15T08:22:07.307Z,55.47
2018-01-15T08:24:35.175Z,59.90
2018-01-15T08:27:03.151Z,54.13
2018-01-15T08:29:31.116Z,53.13
2018-01-15T08:31:59.209Z,69.23
2018-01-15T08:34:27.160Z,64.00
2018-01-15T08:36:56.772Z,59.10
2018-01-15T08:39:24.430Z,55.37
2018-01-15T08:41:52.583Z,68.17
2018-01-15T08:44:20.482Z,52.43
2018-01-15T08:46:48.141Z,54.13
2018-01-15T08:49:15.728Z,52.07
2018-01-15T08:51:43.391Z,56.63
2018-01-15T08:54:10.993Z,51.67
2018-01-15T08:56:38.608Z,45.50
2018-01-15T08:59:06.553Z,49.90
2018-01-15T09:01:34.155Z,47.17
2018-01-15T09:04:01.790Z,49.97
2018-01-15T09:06:29.381Z,48.43
2018-01-15T09:08:57.428Z,45.87
2018-01-15T09:11:25.388Z,46.83
2018-01-15T09:57:04.891Z,42.00
2018-01-15T09:59:32.464Z,38.23
2018-01-15T10:02:00.023Z,36.00
2018-01-15T10:04:27.930Z,31.60
2018-01-15T10:06:55.492Z,36.53
2018-01-15T10:09:23.096Z,36.23
2018-01-15T10:11:50.678Z,32.47
2018-01-15T10:14:18.229Z,30.03
2018-01-15T10:16:45.816Z,33.60
2018-01-15T10:19:13.360Z,30.50
2018-01-15T10:21:41.256Z,39.00
2018-01-15T10:24:09.123Z,29.20
2018-01-15T10:26:36.680Z,31.40
2018-01-15T10:29:04.329Z,35.90
2018-01-15T10:31:31.942Z,31.87
2018-01-15T10:33:59.508Z,30.13
2018-01-15T10:36:27.109Z,37.30
2018-01-15T10:38:54.667Z,33.00
2018-01-15T10:41:22.249Z,34.47
2018-01-15T10:43:49.902Z,36.03
2018-01-15T10:46:18.385Z,32.93
2018-01-15T10:48:45.932Z,34.83
2018-01-15T10:51:13.512Z,36.17
2018-01-15T10:53:41.065Z,32.83
2018-01-15T10:56:08.709Z,33.07
2018-01-15T10:58:36.323Z,29.70
2018-01-15T11:01:09.713Z,34.00
2018-01-15T11:03:37.262Z,31.30
2018-01-15T11:06:04.835Z,44.83
2018-01-15T11:08:32.413Z,28.67
2018-01-15T11:10:59.992Z,36.00
2018-01-15T11:13:27.563Z,31.53
2018-01-15T11:15:55.177Z,37.10
2018-01-15T11:18:22.805Z,26.87
2018-01-15T11:20:50.355Z,28.70
2018-01-15T11:23:17.913Z,26.37
2018-01-15T11:25:45.508Z,28.80
2018-01-15T11:28:13.086Z,27.83
2018-01-15T11:30:40.729Z,30.10
2018-01-15T11:33:08.317Z,28.73
2018-01-15T11:35:35.891Z,26.17
2018-01-15T11:38:03.635Z,27.00
2018-01-15T11:40:31.222Z,27.50
2018-01-15T11:42:58.814Z,26.50
2018-01-15T11:45:26.709Z,29.63
2018-01-15T11:47:54.304Z,31.37
2018-01-15T11:50:21.891Z,26.90
2018-01-15T11:52:49.803Z,28.17
2018-01-15T11:55:17.345Z,26.93
2018-01-15T11:57:44.957Z,27.30
2018-01-15T12:00:12.540Z,23.60
2018-01-15T12:02:40.493Z,23.03
2018-01-15T12:05:08.140Z,20.90
2018-01-15T12:07:35.752Z,24.07
2018-01-15T12:10:03.330Z,27.30
2018-01-15T12:12:31.223Z,22.67
2018-01-15T12:14:58.781Z,25.33
2018-01-15T12:17:26.385Z,22.67
2018-01-15T12:19:54.415Z,24.37
2018-01-15T12:22:22.381Z,25.00
2018-01-15T12:24:49.983Z,23.20
2018-01-15T12:27:17.603Z,25.87
2018-01-15T12:29:45.173Z,24.10
2018-01-15T12:32:12.817Z,25.30
2018-01-15T12:34:40.369Z,24.70
2018-01-15T12:37:07.985Z,29.17
2018-01-15T12:39:35.923Z,22.87
2018-01-15T12:42:03.598Z,28.17
2018-01-15T12:44:31.204Z,23.67
2018-01-15T12:46:58.795Z,28.07
2018-01-15T12:49:26.671Z,23.33
2018-01-15T12:51:54.289Z,23.97
2018-01-15T12:54:21.904Z,31.60
2018-01-15T12:56:49.497Z,26.80
2018-01-15T12:59:17.062Z,27.23
2018-01-15T13:01:44.993Z,25.70
2018-01-15T13:04:12.563Z,25.27
2018-01-15T13:06:51.965Z,24.90
2018-01-15T13:09:19.555Z,22.57
2018-01-15T13:11:47.126Z,23.73
2018-01-15T13:14:14.701Z,24.93
2018-01-15T13:16:42.540Z,27.03
2018-01-15T13:19:10.112Z,22.73
2018-01-15T13:21:37.679Z,26.70
2018-01-15T13:24:05.217Z,24.57
2018-01-15T13:26:32.816Z,25.67
2018-01-15T13:29:00.420Z,23.80
2018-01-15T13:31:28.036Z,25.77
2018-01-15T13:33:55.606Z,25.57
2018-01-15T13:36:23.215Z,23.60
2018-01-15T13:38:50.811Z,28.00
2018-01-15T13:41:18.396Z,25.20
2018-01-15T13:43:45.995Z,22.97
2018-01-15T13:46:13.683Z,23.63
2018-01-15T13:48:41.285Z,30.97
2018-01-15T13:51:08.860Z,22.10
2018-01-15T13:53:36.767Z,24.90
2018-01-15T13:56:04.397Z,23.27
2018-01-15T13:58:32.320Z,24.93
2018-01-15T14:00:59.927Z,24.37
2018-01-15T14:03:27.506Z,27.23
2018-01-15T14:05:55.120Z,26.60
2018-01-15T14:08:22.758Z,25.13
2018-01-15T14:10:50.325Z,28.57
2018-01-15T14:13:17.936Z,21.63
2018-01-15T14:15:45.607Z,26.17
2018-01-15T14:18:13.257Z,25.50
2018-01-15T14:20:40.852Z,37.90
2018-01-15T14:23:08.452Z,24.00
2018-01-15T14:25:36.039Z,25.40
2018-01-15T14:28:03.659Z,23.33
2018-01-15T14:30:31.339Z,27.00
2018-01-15T14:32:58.939Z,24.17
2018-01-15T14:35:26.538Z,26.53
2018-01-15T14:37:54.503Z,24.90
2018-01-15T14:40:22.083Z,25.83
2018-01-15T14:42:49.668Z,26.40
2018-01-15T14:45:17.230Z,28.27
2018-01-15T14:47:45.050Z,22.17
2018-01-15T14:50:12.608Z,24.10
2018-01-15T14:52:40.182Z,24.17
2018-01-15T14:55:07.795Z,25.10
2018-01-15T14:57:35.635Z,22.30
2018-01-15T15:00:03.303Z,24.30
2018-01-15T15:02:30.924Z,33.07
2018-01-15T15:04:58.504Z,22.57
2018-01-15T15:07:26.459Z,22.50
2018-01-15T15:09:54.268Z,25.70
2018-01-15T15:12:21.892Z,25.20
2018-01-15T15:14:49.514Z,28.70
2018-01-15T15:17:17.546Z,25.73
2018-01-15T15:19:45.153Z,23.77
2018-01-15T15:22:12.735Z,23.47
2018-01-15T15:24:40.410Z,54.73
2018-01-15T15:27:08.033Z,25.33
2018-01-15T15:29:35.755Z,23.20
2018-01-15T15:32:03.443Z,25.93
2018-01-15T15:34:31.079Z,22.67
2018-01-15T15:36:58.830Z,24.03
2018-01-15T15:39:26.787Z,22.70
2018-01-15T15:41:54.337Z,25.67
2018-01-15T15:44:21.926Z,31.73
2018-01-15T15:46:49.492Z,21.10
2018-01-15T15:49:17.065Z,25.33
2018-01-15T15:51:44.906Z,26.37
2018-01-15T15:54:12.500Z,28.13
2018-01-15T15:56:40.082Z,24.83
2018-01-15T15:59:07.675Z,29.27
2018-01-15T16:01:35.259Z,25.50
2018-01-15T16:04:03.071Z,23.90
2018-01-15T16:06:30.877Z,21.00
2018-01-15T16:08:58.491Z,24.07
2018-01-15T16:11:26.077Z,23.17
2018-01-15T16:13:53.970Z,25.47
2018-01-15T16:16:21.525Z,28.43
2018-01-15T16:18:49.102Z,22.83
2018-01-15T16:21:16.926Z,21.60
2018-01-15T16:23:44.569Z,22.43
2018-01-15T16:26:12.171Z,23.63
2018-01-15T16:28:39.730Z,27.00
2018-01-15T16:31:07.415Z,22.17
2018-01-15T16:33:35.017Z,23.07
2018-01-15T16:36:02.617Z,25.47
2018-01-15T16:38:30.500Z,24.70
2018-01-15T16:40:58.069Z,22.20
2018-01-15T16:43:25.657Z,21.93
2018-01-15T16:45:53.302Z,23.20
2018-01-15T16:48:20.934Z,23.33
2018-01-15T16:50:48.536Z,25.83
2018-01-15T16:53:16.102Z,24.73
2018-01-15T16:55:43.702Z,28.20
2018-01-15T16:58:11.281Z,25.30
2018-01-15T17:00:38.925Z,28.67
2018-01-15T17:03:06.473Z,23.30
2018-01-15T17:05:34.329Z,24.20
2018-01-15T17:08:01.976Z,22.93
2018-01-15T17:10:29.584Z,27.30
2018-01-15T17:12:57.139Z,24.23
2018-01-15T17:15:24.704Z,22.63
2018-01-15T17:17:52.265Z,25.83
2018-01-15T17:20:19.878Z,23.60
2018-01-15T17:22:47.446Z,26.80
2018-01-15T17:25:15.085Z,24.00
2018-01-15T17:27:42.660Z,23.47
2018-01-15T17:30:10.314Z,22.50
2018-01-15T17:32:38.222Z,24.43
2018-01-15T17:35:06.145Z,26.83
2018-01-15T17:37:33.809Z,21.90
2018-01-15T17:40:01.400Z,24.47
2018-01-15T17:42:29.060Z,23.23
2018-01-15T17:44:56.648Z,26.63
2018-01-15T17:47:24.273Z,26.13
2018-01-15T17:49:51.871Z,26.70
2018-01-15T17:52:19.564Z,26.50
2018-01-15T17:54:47.155Z,29.93
2018-01-15T17:57:14.701Z,35.50
2018-01-15T17:59:42.318Z,25.63
2018-01-15T18:02:09.945Z,25.70
2018-01-15T18:04:37.784Z,26.50
2018-01-15T18:07:05.347Z,33.13
2018-01-15T18:09:32.939Z,30.43
2018-01-15T18:12:00.503Z,24.73
2018-01-15T18:14:28.100Z,25.57
2018-01-15T18:16:55.719Z,24.20
2018-01-15T18:19:23.377Z,24.90
2018-01-15T18:21:51.045Z,26.03
2018-01-15T18:24:18.635Z,30.83
2018-01-15T18:26:46.592Z,30.77
2018-01-15T18:29:14.235Z,24.97
2018-01-15T18:31:41.898Z,27.43
2018-01-15T18:34:09.490Z,23.57
2018-01-15T18:36:37.420Z,25.87
2018-01-15T18:39:05.230Z,27.03
2018-01-15T18:41:33.164Z,27.73
2018-01-15T18:44:00.818Z,28.30
2018-01-15T18:46:28.785Z,25.97
2018-01-15T18:48:56.453Z,29.07
2018-01-15T18:51:24.107Z,24.30
2018-01-15T18:53:51.844Z,26.33
2018-01-15T18:56:19.700Z,29.80
2018-01-15T18:58:47.285Z,25.53
2018-01-15T19:01:14.896Z,26.20
2018-01-15T19:03:42.480Z,26.73
2018-01-15T19:06:10.100Z,27.37
2018-01-15T19:08:37.691Z,27.80
2018-01-15T19:11:05.336Z,29.87
2018-01-15T19:13:32.927Z,31.80
2018-01-15T19:16:00.845Z,28.70
2018-01-15T19:18:28.533Z,28.43
2018-01-15T19:20:56.117Z,29.33
2018-01-15T19:23:23.731Z,30.07
2018-01-15T19:25:51.393Z,30.77
2018-01-15T19:28:18.971Z,27.63
2018-01-15T19:30:46.658Z,31.83
2018-01-15T19:33:14.240Z,28.97
2018-01-15T19:35:44.830Z,30.93
2018-01-15T19:41:16.871Z,31.37
2018-01-15T19:44:03.053Z,29.70
2018-01-15T19:46:36.283Z,32.00
2018-01-15T19:49:09.685Z,25.70
2018-01-15T19:51:42.986Z,28.77
2018-01-15T19:54:16.159Z,27.77
2018-01-15T19:56:49.533Z,30.43
2018-01-15T19:59:22.802Z,27.23
2018-01-15T20:01:56.010Z,30.40
2018-01-15T20:04:29.106Z,33.57
2018-01-15T20:07:02.394Z,30.97
2018-01-15T20:09:35.956Z,24.93
2018-01-15T20:12:03.615Z,28.70
2018-01-15T20:14:31.238Z,30.40
2018-01-15T20:16:58.839Z,26.90
2018-01-15T20:19:26.469Z,32.67
2018-01-15T20:21:54.045Z,29.70
2018-01-15T20:24:21.654Z,29.57
2018-01-15T20:26:49.252Z,26.10
2018-01-15T20:29:16.792Z,30.20
2018-01-15T20:31:44.410Z,27.40
2018-01-15T20:34:11.973Z,31.97
2018-01-15T20:36:39.551Z,26.03
2018-01-15T20:39:07.234Z,24.90
2018-01-15T20:41:34.775Z,27.00
2018-01-15T20:44:02.376Z,26.70
2018-01-15T20:46:29.919Z,27.00
2018-01-15T20:48:57.545Z,36.33
2018-01-15T20:51:25.101Z,33.27
2018-01-15T20:53:52.994Z,28.27
2018-01-15T20:56:20.812Z,23.53
2018-01-15T20:58:48.792Z,30.70
2018-01-15T21:01:16.465Z,27.67
2018-01-15T21:03:44.057Z,34.87
2018-01-15T21:06:12.027Z,27.67
2018-01-15T21:08:39.592Z,29.30
2018-01-15T21:11:07.164Z,35.97
2018-01-15T21:13:34.807Z,29.73
2018-01-15T21:16:02.414Z,27.70
2018-01-15T21:18:29.950Z,30.83
2018-01-15T21:20:57.565Z,35.43
2018-01-15T21:23:25.193Z,26.57
2018-01-15T21:25:52.796Z,29.13
2018-01-15T21:28:20.375Z,28.03
2018-01-15T21:30:47.918Z,29.20
2018-01-15T21:33:15.517Z,33.10
2018-01-15T21:35:43.086Z,37.30
2018-01-15T21:38:10.630Z,29.33
2018-01-15T21:40:38.205Z,25.40
2018-01-15T21:43:05.810Z,27.57
2018-01-15T21:45:33.419Z,29.33
2018-01-15T21:48:01.003Z,30.07
2018-01-15T21:50:28.550Z,31.90
2018-01-15T21:52:56.139Z,35.80
2018-01-15T21:55:23.684Z,29.30
2018-01-15T21:57:51.232Z,31.17
2018-01-15T22:00:18.820Z,29.93
2018-01-15T22:02:46.655Z,24.80
2018-01-15T22:05:14.217Z,33.60
2018-01-15T22:07:41.774Z,28.07
2018-01-15T22:10:09.357Z,30.67
2018-01-15T22:12:36.971Z,27.90
2018-01-15T22:15:04.802Z,29.27
2018-01-15T22:17:32.390Z,25.80
2018-01-15T22:19:59.937Z,29.20
2018-01-15T22:22:27.545Z,31.23
2018-01-15T22:24:55.659Z,32.00
2018-01-15T22:27:23.208Z,28.27
2018-01-15T22:29:50.880Z,26.77
2018-01-15T22:32:18.862Z,27.23
2018-01-15T22:34:46.805Z,30.03
2018-01-15T22:37:15.626Z,34.90
2018-01-15T22:39:43.277Z,28.60
2018-01-15T22:42:10.852Z,28.33
2018-01-15T22:44:38.473Z,49.63
2018-01-15T22:47:06.374Z,26.23
2018-01-15T22:49:34.478Z,28.13
2018-01-15T22:52:02.313Z,36.10
2018-01-15T22:54:29.965Z,26.80
2018-01-15T22:56:57.549Z,23.73
2018-01-15T22:59:25.124Z,27.60
2018-01-15T23:01:52.675Z,25.47
2018-01-15T23:04:20.529Z,27.53
2018-01-15T23:06:48.129Z,31.90
2018-01-15T23:09:15.703Z,32.87
2018-01-15T23:11:43.287Z,27.13
2018-01-15T23:14:10.860Z,23.53
2018-01-15T23:16:38.455Z,29.23
2018-01-15T23:19:06.043Z,25.87
2018-01-15T23:21:33.620Z,26.03
2018-01-15T23:24:01.221Z,26.67
2018-01-15T23:26:28.788Z,27.40
2018-01-15T23:28:56.374Z,29.13
2018-01-15T23:31:23.949Z,28.83
2018-01-15T23:33:51.505Z,26.03
2018-01-15T23:36:19.097Z,27.60
2018-01-15T23:38:46.765Z,27.30
2018-01-15T23:41:14.332Z,31.33
2018-01-15T23:43:41.883Z,29.63
2018-01-15T23:46:09.473Z,26.20
2018-01-15T23:48:37.032Z,35.40
2018-01-15T23:51:04.900Z,41.03
2018-01-15T23:53:32.521Z,27.80
2018-01-15T23:56:00.062Z,31.17
2018-01-15T23:58:27.667Z,30.20
